Trinity — WDF2546 — position and weather

sailwx.info

Track history (hours):
 
Tides and Currents Weather Stations Pressure Air Temp Water Temp Dewpoint Dewpoint Depression Visibility Wind Speed Wind Dir Waves Ship Positions

Trinity

Owner: Norton, Guy V, Hattiesburg, MS. More information available from US FCC via Universal Licensing System and Coast Guard Vessel Documentation Center.

Last reported at 2017-Nov-12 17:37 UTC. Time now 2017-Nov-19 10:50 UTC.
Position N 26°53' W 080°04'.

Length 14 m.

Type: Sailing vessel. MMSI: 367429320.

Date/timePositionNaut miles runAvg speedWind from/ knotsBaromVisibWave heightAir tempDewpointWater temp
2017-Nov-12 17:37N 26°53' W 080°04'1 3.7
2017-Nov-12 17:26N 26°53' W 080°04'3 6.9
2017-Nov-12 17:00N 26°56' W 080°05'3 5.5
2017-Nov-12 16:30N 26°59' W 080°05'  
2017-Nov-05 18:50N 31°51' W 081°08'3 3.8
2017-Nov-05 17:56N 31°54' W 081°06'2 5.6
2017-Nov-05 17:30N 31°56' W 081°05'3 5.7
2017-Nov-05 16:58N 31°59' W 081°03'3 5.5
2017-Nov-05 16:30N 32°01' W 081°01'2 4.0
2017-Nov-05 15:59N 32°02' W 081°03'0 0.0
2017-Nov-05 15:17N 32°02' W 081°03'0 0.0
2017-Nov-05 14:59N 32°02' W 081°03'0 0.0
2017-Nov-05 14:29N 32°02' W 081°03'0 0.0
2017-Nov-05 13:59N 32°02' W 081°03'3 5.8
2017-Nov-05 13:29N 32°04' W 081°01'1 2.9
2017-Nov-05 13:00N 32°05' W 080°60'3 5.8
2017-Nov-05 12:30N 32°05' W 081°03'2 3.6
2017-Nov-05 11:58N 32°05' W 081°05'0 0.0
2017-Nov-05 11:28N 32°05' W 081°05'0 0.0
2017-Nov-05 10:58N 32°05' W 081°05'0 0.0
2017-Nov-05 10:29N 32°05' W 081°05'0 0.0
2017-Nov-05 09:59N 32°05' W 081°05'0 0.0
2017-Nov-05 09:29N 32°05' W 081°05'0 0.0
2017-Nov-05 08:59N 32°05' W 081°05'0 0.0
2017-Nov-05 08:29N 32°05' W 081°05'0 0.0
2017-Nov-05 07:59N 32°05' W 081°05'0 0.0
2017-Nov-05 07:23N 32°05' W 081°05'0 0.0
2017-Nov-05 06:59N 32°05' W 081°05'0 0.0
2017-Nov-05 06:29N 32°05' W 081°05'0 0.0
2017-Nov-05 05:53N 32°05' W 081°05'0 0.0
2017-Nov-05 05:23N 32°05' W 081°05'0 0.0
2017-Nov-05 04:53N 32°05' W 081°05'0 0.0
2017-Nov-05 04:29N 32°05' W 081°05'0 0.0
2017-Nov-05 03:56N 32°05' W 081°05'0 0.0
2017-Nov-05 03:29N 32°05' W 081°05'0 0.0
2017-Nov-05 02:59N 32°05' W 081°05'0 0.0
2017-Nov-05 02:29N 32°05' W 081°05'0 0.0
2017-Nov-05 01:59N 32°05' W 081°05'0 0.0
2017-Nov-05 01:29N 32°05' W 081°05'0 0.0
2017-Nov-05 00:59N 32°05' W 081°05'0 0.0
2017-Nov-05 00:29N 32°05' W 081°05'0 0.0
2017-Nov-04 23:53N 32°05' W 081°05'0 0.0
2017-Nov-04 23:29N 32°05' W 081°05'0 0.0
2017-Nov-04 22:59N 32°05' W 081°05'0 0.0
2017-Nov-04 22:29N 32°05' W 081°05'0 0.0
2017-Nov-04 21:59N 32°05' W 081°05'0 0.0
2017-Nov-04 21:29N 32°05' W 081°05'0 0.0
2017-Nov-04 20:59N 32°05' W 081°05'0 0.0
2017-Nov-04 20:23N 32°05' W 081°05'0 0.0
2017-Nov-04 19:59N 32°05' W 081°05'0 0.0
2017-Nov-04 19:17N 32°05' W 081°05'0 0.0
2017-Nov-04 18:59N 32°05' W 081°05'0 0.0
2017-Nov-04 18:29N 32°05' W 081°05'0 0.0
2017-Nov-04 17:59N 32°05' W 081°05'0 0.0
2017-Nov-04 17:29N 32°05' W 081°05'0 0.0
2017-Nov-04 16:59N 32°05' W 081°05'0 0.0
2017-Nov-04 16:29N 32°05' W 081°05'0 0.0
2017-Nov-04 15:59N 32°05' W 081°05'0 0.0
2017-Nov-04 15:29N 32°05' W 081°05'0 0.0
2017-Nov-04 14:59N 32°05' W 081°05'0 0.0
2017-Nov-04 14:29N 32°05' W 081°05'0 0.0
2017-Nov-04 13:59N 32°05' W 081°05'0 0.0
2017-Nov-04 13:29N 32°05' W 081°05'0 0.0
2017-Nov-04 12:59N 32°05' W 081°05'0 0.0
2017-Nov-04 12:29N 32°05' W 081°05'0 0.0
2017-Nov-04 11:59N 32°05' W 081°05'0 0.0
2017-Nov-04 11:29N 32°05' W 081°05'0 0.0
2017-Nov-04 10:59N 32°05' W 081°05'0 0.0
2017-Nov-04 10:29N 32°05' W 081°05'0 0.0
2017-Nov-04 09:59N 32°05' W 081°05'0 0.0
2017-Nov-04 09:29N 32°05' W 081°05'0 0.0
2017-Nov-04 08:59N 32°05' W 081°05'0 0.0
2017-Nov-04 08:29N 32°05' W 081°05'0 0.0
2017-Nov-04 07:59N 32°05' W 081°05'0 0.0
2017-Nov-04 07:23N 32°05' W 081°05'0 0.0
2017-Nov-04 06:59N 32°05' W 081°05'0 0.0
2017-Nov-04 06:29N 32°05' W 081°05'0 0.0
2017-Nov-04 05:59N 32°05' W 081°05'0 0.0
2017-Nov-04 05:23N 32°05' W 081°05'0 0.0
2017-Nov-04 04:59N 32°05' W 081°05'0 0.0
2017-Nov-04 04:29N 32°05' W 081°05'0 0.0
2017-Nov-04 03:59N 32°05' W 081°05'0 0.0
2017-Nov-04 03:23N 32°05' W 081°05'0 0.0
2017-Nov-04 02:53N 32°05' W 081°05'0 0.0
2017-Nov-04 02:29N 32°05' W 081°05'0 0.0
2017-Nov-04 01:59N 32°05' W 081°05'0 0.0
2017-Nov-04 01:29N 32°05' W 081°05'0 0.0
2017-Nov-04 00:59N 32°05' W 081°05'0 0.0
2017-Nov-04 00:29N 32°05' W 081°05'0 0.0
2017-Nov-03 23:59N 32°05' W 081°05'0 0.0
2017-Nov-03 23:29N 32°05' W 081°05'0 0.0
2017-Nov-03 22:59N 32°05' W 081°05'0 0.0
2017-Nov-03 22:29N 32°05' W 081°05'0 0.0
2017-Nov-03 21:59N 32°05' W 081°05'0 0.0
2017-Nov-03 21:29N 32°05' W 081°05'0 0.0
2017-Nov-03 20:59N 32°05' W 081°05'0 0.0
2017-Nov-03 20:29N 32°05' W 081°05'0 0.0
2017-Nov-03 19:59N 32°05' W 081°05'0 0.0
2017-Nov-03 19:29N 32°05' W 081°05'0 0.0
2017-Nov-03 18:59N 32°05' W 081°05'0 0.0
2017-Nov-03 18:29N 32°05' W 081°05'0 0.0
2017-Nov-03 17:59N 32°05' W 081°05'0 0.0
2017-Nov-03 17:29N 32°05' W 081°05'0 0.1
2017-Nov-03 16:59N 32°05' W 081°05'2 3.7
2017-Nov-03 16:30N 32°05' W 081°03'2 4.8
2017-Nov-03 16:00N 32°06' W 081°01'2 4.7
2017-Nov-03 15:30N 32°05' W 080°58'3 5.6
2017-Nov-03 15:00N 32°05' W 080°55'3 6.2
2017-Nov-03 14:30N 32°08' W 080°53'3 5.0
2017-Nov-03 13:57N 32°09' W 080°50'4 7.7
2017-Nov-03 13:27N 32°12' W 080°47'2 0.5
2017-Nov-03 08:52N 32°14' W 080°46'0 0.0
2017-Nov-03 08:22N 32°14' W 080°46'0 0.0
2017-Nov-03 07:10N 32°14' W 080°46'0 0.0
2017-Nov-03 06:52N 32°14' W 080°46'0 0.0
2017-Nov-03 06:22N 32°14' W 080°46'0 0.0
2017-Nov-03 05:52N 32°14' W 080°46'0 0.0
2017-Nov-03 05:28N 32°14' W 080°46'0 0.0
2017-Nov-03 04:46N 32°14' W 080°46'0 0.0
2017-Nov-03 04:28N 32°14' W 080°46'0 0.0
2017-Nov-03 03:52N 32°14' W 080°46'0 0.0
2017-Nov-03 03:28N 32°14' W 080°46'0 0.0
2017-Nov-03 01:46N 32°14' W 080°46'0 0.0
2017-Nov-03 01:22N 32°14' W 080°46'  
Track history (hours):
 
Tides and Currents Weather Stations Pressure Air Temp Water Temp Dewpoint Dewpoint Depression Visibility Wind Speed Wind Dir Waves Ship Positions

Trinity

Owner: Norton, Guy V, Hattiesburg, MS. More information available from US FCC via Universal Licensing System and Coast Guard Vessel Documentation Center.

Last reported at 2017-Nov-12 17:37 UTC. Time now 2017-Nov-19 10:50 UTC.
Position N 26°53' W 080°04'.

Length 14 m.

Type: Sailing vessel. MMSI: 367429320.

Date/timePositionNaut miles runAvg speedWind from/ knotsBaromVisibWave heightAir tempDewpointWater temp
2017-Nov-12 17:37N 26°53' W 080°04'1 3.7
2017-Nov-12 17:26N 26°53' W 080°04'3 6.9
2017-Nov-12 17:00N 26°56' W 080°05'3 5.5
2017-Nov-12 16:30N 26°59' W 080°05'  
2017-Nov-05 18:50N 31°51' W 081°08'3 3.8
2017-Nov-05 17:56N 31°54' W 081°06'2 5.6
2017-Nov-05 17:30N 31°56' W 081°05'3 5.7
2017-Nov-05 16:58N 31°59' W 081°03'3 5.5
2017-Nov-05 16:30N 32°01' W 081°01'2 4.0
2017-Nov-05 15:59N 32°02' W 081°03'0 0.0
2017-Nov-05 15:17N 32°02' W 081°03'0 0.0
2017-Nov-05 14:59N 32°02' W 081°03'0 0.0
2017-Nov-05 14:29N 32°02' W 081°03'0 0.0
2017-Nov-05 13:59N 32°02' W 081°03'3 5.8
2017-Nov-05 13:29N 32°04' W 081°01'1 2.9
2017-Nov-05 13:00N 32°05' W 080°60'3 5.8
2017-Nov-05 12:30N 32°05' W 081°03'2 3.6
2017-Nov-05 11:58N 32°05' W 081°05'0 0.0
2017-Nov-05 11:28N 32°05' W 081°05'0 0.0
2017-Nov-05 10:58N 32°05' W 081°05'0 0.0
2017-Nov-05 10:29N 32°05' W 081°05'0 0.0
2017-Nov-05 09:59N 32°05' W 081°05'0 0.0
2017-Nov-05 09:29N 32°05' W 081°05'0 0.0
2017-Nov-05 08:59N 32°05' W 081°05'0 0.0
2017-Nov-05 08:29N 32°05' W 081°05'0 0.0
2017-Nov-05 07:59N 32°05' W 081°05'0 0.0
2017-Nov-05 07:23N 32°05' W 081°05'0 0.0
2017-Nov-05 06:59N 32°05' W 081°05'0 0.0
2017-Nov-05 06:29N 32°05' W 081°05'0 0.0
2017-Nov-05 05:53N 32°05' W 081°05'0 0.0
2017-Nov-05 05:23N 32°05' W 081°05'0 0.0
2017-Nov-05 04:53N 32°05' W 081°05'0 0.0
2017-Nov-05 04:29N 32°05' W 081°05'0 0.0
2017-Nov-05 03:56N 32°05' W 081°05'0 0.0
2017-Nov-05 03:29N 32°05' W 081°05'0 0.0
2017-Nov-05 02:59N 32°05' W 081°05'0 0.0
2017-Nov-05 02:29N 32°05' W 081°05'0 0.0
2017-Nov-05 01:59N 32°05' W 081°05'0 0.0
2017-Nov-05 01:29N 32°05' W 081°05'0 0.0
2017-Nov-05 00:59N 32°05' W 081°05'0 0.0
2017-Nov-05 00:29N 32°05' W 081°05'0 0.0
2017-Nov-04 23:53N 32°05' W 081°05'0 0.0
2017-Nov-04 23:29N 32°05' W 081°05'0 0.0
2017-Nov-04 22:59N 32°05' W 081°05'0 0.0
2017-Nov-04 22:29N 32°05' W 081°05'0 0.0
2017-Nov-04 21:59N 32°05' W 081°05'0 0.0
2017-Nov-04 21:29N 32°05' W 081°05'0 0.0
2017-Nov-04 20:59N 32°05' W 081°05'0 0.0
2017-Nov-04 20:23N 32°05' W 081°05'0 0.0
2017-Nov-04 19:59N 32°05' W 081°05'0 0.0
2017-Nov-04 19:17N 32°05' W 081°05'0 0.0
2017-Nov-04 18:59N 32°05' W 081°05'0 0.0
2017-Nov-04 18:29N 32°05' W 081°05'0 0.0
2017-Nov-04 17:59N 32°05' W 081°05'0 0.0
2017-Nov-04 17:29N 32°05' W 081°05'0 0.0
2017-Nov-04 16:59N 32°05' W 081°05'0 0.0
2017-Nov-04 16:29N 32°05' W 081°05'0 0.0
2017-Nov-04 15:59N 32°05' W 081°05'0 0.0
2017-Nov-04 15:29N 32°05' W 081°05'0 0.0
2017-Nov-04 14:59N 32°05' W 081°05'0 0.0
2017-Nov-04 14:29N 32°05' W 081°05'0 0.0
2017-Nov-04 13:59N 32°05' W 081°05'0 0.0
2017-Nov-04 13:29N 32°05' W 081°05'0 0.0
2017-Nov-04 12:59N 32°05' W 081°05'0 0.0
2017-Nov-04 12:29N 32°05' W 081°05'0 0.0
2017-Nov-04 11:59N 32°05' W 081°05'0 0.0
2017-Nov-04 11:29N 32°05' W 081°05'0 0.0
2017-Nov-04 10:59N 32°05' W 081°05'0 0.0
2017-Nov-04 10:29N 32°05' W 081°05'0 0.0
2017-Nov-04 09:59N 32°05' W 081°05'0 0.0
2017-Nov-04 09:29N 32°05' W 081°05'0 0.0
2017-Nov-04 08:59N 32°05' W 081°05'0 0.0
2017-Nov-04 08:29N 32°05' W 081°05'0 0.0
2017-Nov-04 07:59N 32°05' W 081°05'0 0.0
2017-Nov-04 07:23N 32°05' W 081°05'0 0.0
2017-Nov-04 06:59N 32°05' W 081°05'0 0.0
2017-Nov-04 06:29N 32°05' W 081°05'0 0.0
2017-Nov-04 05:59N 32°05' W 081°05'0 0.0
2017-Nov-04 05:23N 32°05' W 081°05'0 0.0
2017-Nov-04 04:59N 32°05' W 081°05'0 0.0
2017-Nov-04 04:29N 32°05' W 081°05'0 0.0
2017-Nov-04 03:59N 32°05' W 081°05'0 0.0
2017-Nov-04 03:23N 32°05' W 081°05'0 0.0
2017-Nov-04 02:53N 32°05' W 081°05'0 0.0
2017-Nov-04 02:29N 32°05' W 081°05'0 0.0
2017-Nov-04 01:59N 32°05' W 081°05'0 0.0
2017-Nov-04 01:29N 32°05' W 081°05'0 0.0
2017-Nov-04 00:59N 32°05' W 081°05'0 0.0
2017-Nov-04 00:29N 32°05' W 081°05'0 0.0
2017-Nov-03 23:59N 32°05' W 081°05'0 0.0
2017-Nov-03 23:29N 32°05' W 081°05'0 0.0
2017-Nov-03 22:59N 32°05' W 081°05'0 0.0
2017-Nov-03 22:29N 32°05' W 081°05'0 0.0
2017-Nov-03 21:59N 32°05' W 081°05'0 0.0
2017-Nov-03 21:29N 32°05' W 081°05'0 0.0
2017-Nov-03 20:59N 32°05' W 081°05'0 0.0
2017-Nov-03 20:29N 32°05' W 081°05'0 0.0
2017-Nov-03 19:59N 32°05' W 081°05'0 0.0
2017-Nov-03 19:29N 32°05' W 081°05'0 0.0
2017-Nov-03 18:59N 32°05' W 081°05'0 0.0
2017-Nov-03 18:29N 32°05' W 081°05'0 0.0
2017-Nov-03 17:59N 32°05' W 081°05'0 0.0
2017-Nov-03 17:29N 32°05' W 081°05'0 0.1
2017-Nov-03 16:59N 32°05' W 081°05'2 3.7
2017-Nov-03 16:30N 32°05' W 081°03'2 4.8
2017-Nov-03 16:00N 32°06' W 081°01'2 4.7
2017-Nov-03 15:30N 32°05' W 080°58'3 5.6
2017-Nov-03 15:00N 32°05' W 080°55'3 6.2
2017-Nov-03 14:30N 32°08' W 080°53'3 5.0
2017-Nov-03 13:57N 32°09' W 080°50'4 7.7
2017-Nov-03 13:27N 32°12' W 080°47'2 0.5
2017-Nov-03 08:52N 32°14' W 080°46'0 0.0
2017-Nov-03 08:22N 32°14' W 080°46'0 0.0
2017-Nov-03 07:10N 32°14' W 080°46'0 0.0
2017-Nov-03 06:52N 32°14' W 080°46'0 0.0
2017-Nov-03 06:22N 32°14' W 080°46'0 0.0
2017-Nov-03 05:52N 32°14' W 080°46'0 0.0
2017-Nov-03 05:28N 32°14' W 080°46'0 0.0
2017-Nov-03 04:46N 32°14' W 080°46'0 0.0
2017-Nov-03 04:28N 32°14' W 080°46'0 0.0
2017-Nov-03 03:52N 32°14' W 080°46'0 0.0
2017-Nov-03 03:28N 32°14' W 080°46'0 0.0
2017-Nov-03 01:46N 32°14' W 080°46'0 0.0
2017-Nov-03 01:22N 32°14' W 080°46'  

Dump ship's entire track history